createdAt,value
2022-09-09T00:01:28.692Z,2.92
2022-09-09T00:04:16.177Z,3.08
2022-09-09T00:06:50.555Z,2.50
2022-09-09T00:09:27.056Z,3.02
2022-09-09T00:12:05.651Z,2.98
2022-09-09T00:14:42.741Z,2.87
2022-09-09T00:17:29.272Z,2.95
2022-09-09T00:20:07.549Z,2.55
2022-09-09T00:22:47.152Z,2.87
2022-09-09T00:25:27.331Z,3.00
2022-09-09T00:28:02.126Z,2.27
2022-09-09T00:30:39.065Z,2.90
2022-09-09T00:33:16.383Z,2.70
2022-09-09T00:38:27.126Z,2.60
2022-09-09T00:41:03.658Z,2.90
2022-09-09T00:43:39.371Z,2.33
2022-09-09T00:49:32.201Z,2.58
2022-09-09T00:52:14.160Z,2.60
2022-09-09T00:54:52.477Z,3.02
2022-09-09T00:57:32.337Z,2.50
2022-09-09T01:00:21.025Z,2.72
2022-09-09T01:03:04.501Z,2.87
2022-09-09T01:05:43.451Z,2.80
2022-09-09T01:08:22.602Z,3.02
2022-09-09T01:10:59.102Z,2.80
2022-09-09T01:13:35.456Z,2.40
2022-09-09T01:16:14.102Z,2.77
2022-09-09T01:18:50.644Z,2.37
2022-09-09T01:21:27.773Z,2.10
2022-09-09T01:24:09.628Z,2.80
2022-09-09T01:26:45.938Z,2.55
2022-09-09T01:29:23.541Z,2.47
2022-09-09T01:31:59.008Z,2.27
2022-09-09T01:34:35.341Z,2.67
2022-09-09T01:37:10.322Z,2.42
2022-09-09T01:39:47.201Z,2.50
2022-09-09T01:42:22.361Z,2.10
2022-09-09T01:44:56.549Z,2.42
2022-09-09T01:47:31.524Z,2.52
2022-09-09T01:50:13.229Z,2.37
2022-09-09T01:52:48.831Z,2.58
2022-09-09T01:55:26.580Z,2.15
2022-09-09T01:58:05.691Z,2.70
2022-09-09T02:00:42.734Z,2.72
2022-09-09T02:03:19.555Z,1.90
2022-09-09T02:05:57.769Z,2.50
2022-09-09T02:08:37.396Z,2.62
2022-09-09T02:11:15.783Z,2.60
2022-09-09T02:13:53.275Z,2.85
2022-09-09T02:16:29.890Z,2.30
2022-09-09T02:19:07.202Z,2.33
2022-09-09T02:21:44.552Z,2.50
2022-09-09T02:24:19.486Z,2.27
2022-09-09T02:26:56.883Z,2.58
2022-09-09T02:29:33.573Z,2.17
2022-09-09T02:32:10.823Z,2.05
2022-09-09T02:34:47.671Z,2.60
2022-09-09T02:37:23.920Z,2.40
2022-09-09T02:39:58.997Z,2.25
2022-09-09T02:42:34.129Z,2.22
2022-09-09T02:45:09.477Z,1.98
2022-09-09T02:47:47.827Z,2.05
2022-09-09T02:50:24.501Z,2.75
2022-09-09T02:53:07.573Z,2.40
2022-09-09T02:55:47.496Z,2.20
2022-09-09T02:58:22.724Z,2.52
2022-09-09T03:01:02.342Z,2.47
2022-09-09T03:03:37.353Z,2.87
2022-09-09T03:06:13.895Z,2.12
2022-09-09T03:08:49.781Z,2.65
2022-09-09T03:11:25.030Z,2.83
2022-09-09T03:14:00.214Z,2.47
2022-09-09T03:16:35.542Z,2.30
2022-09-09T03:19:09.006Z,3.50
2022-09-09T03:21:42.413Z,2.22
2022-09-09T03:24:15.601Z,2.85
2022-09-09T03:26:49.233Z,2.55
2022-09-09T03:29:22.948Z,2.50
2022-09-09T03:31:58.086Z,2.65
2022-09-09T03:34:31.956Z,2.10
2022-09-09T03:37:06.675Z,2.60
2022-09-09T03:39:40.319Z,2.85
2022-09-09T03:42:18.301Z,2.65
2022-09-09T03:47:26.204Z,2.37
2022-09-09T03:50:01.213Z,2.70
2022-09-09T03:52:36.529Z,2.72
2022-09-09T03:55:12.295Z,2.75
2022-09-09T03:57:47.189Z,2.77
2022-09-09T04:00:21.729Z,2.10
2022-09-09T04:02:58.909Z,2.33
2022-09-09T04:05:33.967Z,2.17
2022-09-09T04:08:07.371Z,2.40
2022-09-09T04:10:43.969Z,2.40
2022-09-09T04:13:18.806Z,3.27
2022-09-09T04:15:56.371Z,3.17
2022-09-09T04:18:30.453Z,2.62
2022-09-09T04:21:04.821Z,2.92
2022-09-09T04:23:38.142Z,2.67
2022-09-09T04:26:12.400Z,2.70
2022-09-09T04:28:46.552Z,3.05
2022-09-09T04:31:24.886Z,2.50
2022-09-09T04:34:01.824Z,2.20
2022-09-09T04:36:36.128Z,2.92
2022-09-09T04:39:10.886Z,2.22
2022-09-09T04:41:44.693Z,2.80
2022-09-09T04:44:18.324Z,2.70
2022-09-09T04:46:51.665Z,2.83
2022-09-09T04:49:26.868Z,2.35
2022-09-09T04:52:02.167Z,2.30
2022-09-09T04:54:36.446Z,2.72
2022-09-09T04:57:10.102Z,3.05
2022-09-09T04:59:45.675Z,2.27
2022-09-09T05:02:32.701Z,2.22
2022-09-09T05:05:10.209Z,3.70
2022-09-09T05:07:44.579Z,2.35
2022-09-09T05:10:19.696Z,2.25
2022-09-09T05:13:00.186Z,2.50
2022-09-09T05:15:47.357Z,2.77
2022-09-09T05:18:23.971Z,2.58
2022-09-09T05:21:07.391Z,3.00
2022-09-09T05:23:43.894Z,2.50
2022-09-09T05:26:20.744Z,2.35
2022-09-09T05:29:02.003Z,2.17
2022-09-09T05:31:36.676Z,2.35
2022-09-09T05:34:26.602Z,2.87
2022-09-09T05:37:01.294Z,2.80
2022-09-09T05:39:35.314Z,2.40
2022-09-09T05:42:09.924Z,2.47
2022-09-09T05:44:46.101Z,2.27
2022-09-09T05:47:20.008Z,2.40
2022-09-09T05:49:53.696Z,2.05
2022-09-09T05:52:28.268Z,3.15
2022-09-09T05:55:02.067Z,2.17
2022-09-09T05:57:35.776Z,1.87
2022-09-09T06:00:13.503Z,1.60
2022-09-09T06:02:55.784Z,1.47
2022-09-09T06:08:02.889Z,1.90
2022-09-09T06:10:37.448Z,1.50
2022-09-09T06:13:12.744Z,1.42
2022-09-09T06:15:54.167Z,1.77
2022-09-09T06:18:28.620Z,1.10
2022-09-09T06:21:05.452Z,1.42
2022-09-09T06:23:39.191Z,1.02
2022-09-09T06:26:15.137Z,0.90
2022-09-09T06:28:50.388Z,1.00
2022-09-09T06:31:29.726Z,1.10
2022-09-09T06:34:02.267Z,1.32
2022-09-09T06:36:38.824Z,0.60
2022-09-09T06:39:14.958Z,0.93
2022-09-09T06:41:48.463Z,0.70
2022-09-09T06:44:33.314Z,0.60
2022-09-09T06:47:05.188Z,0.75
2022-09-09T06:49:39.391Z,0.88
2022-09-09T06:52:15.525Z,0.65
2022-09-09T06:54:49.668Z,0.60
2022-09-09T06:57:39.046Z,0.70
2022-09-09T06:59:59.214Z,0.70
2022-09-09T07:02:36.166Z,0.40
2022-09-09T07:05:11.854Z,0.40
2022-09-09T07:07:46.694Z,0.57
2022-09-09T07:10:21.353Z,0.20
2022-09-09T07:12:55.882Z,0.30
2022-09-09T07:15:31.213Z,0.47
2022-09-09T07:18:06.543Z,0.42
2022-09-09T07:20:40.115Z,0.35
2022-09-09T07:23:13.588Z,0.42
2022-09-09T07:25:49.694Z,0.40
2022-09-09T07:28:23.912Z,0.62
2022-09-09T07:31:02.375Z,0.40
2022-09-09T07:33:37.817Z,0.30
2022-09-09T07:36:13.869Z,0.50
2022-09-09T07:38:49.374Z,0.45
2022-09-09T07:41:24.310Z,0.25
2022-09-09T07:43:59.701Z,0.25
2022-09-09T07:46:33.536Z,0.50
2022-09-09T07:49:08.010Z,0.20
2022-09-09T07:51:43.558Z,0.20
2022-09-09T07:54:21.567Z,0.40
2022-09-09T07:56:55.920Z,0.55
2022-09-09T07:59:31.469Z,0.42
2022-09-09T08:02:05.275Z,0.45
2022-09-09T08:04:40.189Z,0.60
2022-09-09T08:07:14.291Z,0.40
2022-09-09T08:09:52.591Z,0.50
2022-09-09T08:12:28.986Z,0.60
2022-09-09T08:15:02.837Z,0.30
2022-09-09T08:17:39.119Z,0.45
2022-09-09T08:20:13.858Z,0.53
2022-09-09T08:22:48.408Z,0.40
2022-09-09T08:25:21.817Z,0.30
2022-09-09T08:27:56.958Z,0.25
2022-09-09T08:30:31.036Z,0.35
2022-09-09T08:33:04.568Z,0.35
2022-09-09T08:35:37.804Z,0.30
2022-09-09T08:38:11.328Z,0.15
2022-09-09T08:40:49.615Z,0.23
2022-09-09T08:43:26.201Z,0.50
2022-09-09T08:46:05.327Z,0.23
2022-09-09T08:48:47.621Z,0.20
2022-09-09T08:51:22.404Z,0.57
2022-09-09T08:53:59.979Z,0.30
2022-09-09T08:56:35.373Z,0.40
2022-09-09T08:59:11.542Z,0.47
2022-09-09T09:04:55.887Z,0.50
2022-09-09T09:07:36.563Z,1.00
2022-09-09T09:10:39.774Z,0.60
2022-09-09T09:12:52.377Z,0.40
2022-09-09T09:15:32.081Z,0.45
2022-09-09T09:18:04.614Z,0.93
2022-09-09T09:20:42.764Z,0.30
2022-09-09T09:23:21.064Z,0.42
2022-09-09T09:25:58.656Z,0.40
2022-09-09T09:28:37.466Z,0.42
2022-09-09T09:31:14.968Z,0.28
2022-09-09T09:36:28.269Z,0.23
2022-09-09T09:44:27.051Z,0.30
2022-09-09T09:47:13.313Z,0.33
2022-09-09T09:49:56.550Z,0.62
2022-09-09T09:52:31.558Z,0.40
2022-09-09T09:55:09.849Z,0.50
2022-09-09T09:57:43.323Z,0.30
2022-09-09T10:00:20.298Z,0.60
2022-09-09T10:03:06.053Z,0.40
2022-09-09T10:05:41.600Z,0.50
2022-09-09T10:08:19.770Z,0.42
2022-09-09T10:11:08.086Z,0.37
2022-09-09T10:13:46.780Z,0.55
2022-09-09T10:16:35.437Z,0.70
2022-09-09T10:19:13.783Z,0.60
2022-09-09T10:21:59.738Z,0.60
2022-09-09T10:24:56.468Z,0.25
2022-09-09T10:27:32.985Z,0.37
2022-09-09T10:30:11.707Z,0.50
2022-09-09T10:32:54.205Z,0.90
2022-09-09T10:35:34.667Z,0.57
2022-09-09T10:38:20.048Z,0.50
2022-09-09T10:41:27.005Z,0.70
2022-09-09T10:44:25.351Z,0.80
2022-09-09T10:47:20.939Z,0.88
2022-09-09T10:50:57.089Z,0.50
2022-09-09T10:53:10.483Z,0.68
2022-09-09T10:55:47.059Z,0.75
2022-09-09T10:58:23.264Z,1.02
2022-09-09T11:01:00.558Z,1.15
2022-09-09T11:03:36.138Z,0.80
2022-09-09T11:06:12.248Z,0.72
2022-09-09T11:08:46.260Z,0.65
2022-09-09T11:11:22.967Z,0.70
2022-09-09T11:14:00.197Z,0.40
2022-09-09T11:16:36.112Z,0.53
2022-09-09T11:19:14.546Z,0.40
2022-09-09T11:21:50.624Z,0.68
2022-09-09T11:24:28.518Z,0.47
2022-09-09T11:27:04.922Z,0.53
2022-09-09T11:29:54.949Z,0.80
2022-09-09T11:33:21.139Z,0.88
2022-09-09T11:38:41.819Z,0.60
2022-09-09T11:41:21.525Z,0.45
2022-09-09T11:43:54.326Z,0.50
2022-09-09T11:46:36.714Z,0.60
2022-09-09T11:49:26.312Z,0.40
2022-09-09T11:52:00.025Z,0.50
2022-09-09T11:54:37.342Z,0.57
2022-09-09T11:57:27.051Z,0.30
2022-09-09T12:00:01.139Z,0.23
2022-09-09T12:02:37.839Z,0.30
2022-09-09T12:05:15.349Z,0.47
2022-09-09T12:07:54.878Z,0.30
2022-09-09T12:10:31.217Z,0.37
2022-09-09T12:13:21.704Z,1.02
2022-09-09T12:15:56.638Z,0.40
2022-09-09T12:18:37.924Z,0.20
2022-09-09T12:21:15.468Z,0.70
2022-09-09T12:23:52.754Z,0.90
2022-09-09T12:26:36.386Z,0.70
2022-09-09T12:29:15.543Z,0.85
2022-09-09T12:31:51.845Z,0.80
2022-09-09T12:34:31.782Z,1.95
2022-09-09T12:37:08.779Z,0.90
2022-09-09T12:39:46.847Z,0.95
2022-09-09T12:42:24.746Z,0.90
2022-09-09T12:44:59.980Z,1.10
2022-09-09T12:47:41.661Z,0.50
2022-09-09T12:50:22.613Z,0.60
2022-09-09T12:52:59.614Z,0.40
2022-09-09T12:55:35.235Z,0.35
2022-09-09T12:58:09.796Z,0.40
2022-09-09T13:00:46.046Z,0.45
2022-09-09T13:03:22.242Z,0.30
2022-09-09T13:05:59.001Z,0.40
2022-09-09T13:08:32.272Z,0.42
2022-09-09T13:11:08.848Z,0.60
2022-09-09T13:13:44.281Z,0.47
2022-09-09T13:16:28.141Z,0.40
2022-09-09T13:19:02.974Z,0.20
2022-09-09T13:21:38.607Z,0.40
2022-09-09T13:24:30.207Z,0.55
2022-09-09T13:27:05.612Z,0.45
2022-09-09T13:29:40.877Z,0.62
2022-09-09T13:35:28.443Z,0.57
2022-09-09T13:38:03.699Z,0.70
2022-09-09T13:40:38.040Z,0.82
2022-09-09T13:43:18.353Z,0.70
2022-09-09T13:45:59.163Z,1.10
2022-09-09T13:48:33.095Z,0.72
2022-09-09T13:51:07.211Z,0.57
2022-09-09T13:53:40.765Z,0.60
2022-09-09T13:56:14.671Z,0.70
2022-09-09T13:58:48.176Z,1.20
2022-09-09T14:01:22.882Z,1.02
2022-09-09T14:03:56.934Z,0.90
2022-09-09T14:06:33.422Z,0.70
2022-09-09T14:09:07.536Z,0.68
2022-09-09T14:11:41.622Z,0.88
2022-09-09T14:14:15.046Z,0.80
2022-09-09T14:16:48.818Z,0.53
2022-09-09T14:19:22.282Z,0.88
2022-09-09T14:21:55.750Z,0.90
2022-09-09T14:24:29.683Z,0.95
2022-09-09T14:27:03.001Z,0.75
2022-09-09T14:29:36.552Z,1.02
2022-09-09T14:32:12.761Z,0.75
2022-09-09T14:34:45.111Z,1.12
2022-09-09T14:37:18.556Z,1.20
2022-09-09T14:39:52.709Z,1.60
2022-09-09T14:42:26.339Z,2.70
2022-09-09T14:45:00.045Z,1.90
2022-09-09T14:47:35.533Z,2.10
2022-09-09T14:50:11.324Z,1.52
2022-09-09T14:52:45.431Z,1.90
2022-09-09T14:55:20.297Z,1.70
2022-09-09T14:57:53.734Z,1.20
2022-09-09T15:00:27.684Z,1.50
2022-09-09T15:03:01.798Z,2.35
2022-09-09T15:05:35.654Z,2.08
2022-09-09T15:08:09.654Z,2.17
2022-09-09T15:10:43.798Z,1.87
2022-09-09T15:13:19.023Z,2.55
2022-09-09T15:15:52.764Z,2.40
2022-09-09T15:18:26.681Z,1.87
2022-09-09T15:21:01.158Z,1.62
2022-09-09T15:23:38.340Z,2.52
2022-09-09T15:26:13.278Z,1.70
2022-09-09T15:28:50.927Z,1.80
2022-09-09T15:31:26.423Z,1.98
2022-09-09T15:34:02.650Z,1.70
2022-09-09T15:36:38.468Z,1.55
2022-09-09T15:42:10.660Z,1.60
2022-09-09T15:44:45.523Z,1.73
2022-09-09T15:47:24.504Z,1.75
2022-09-09T15:49:59.103Z,2.27
2022-09-09T15:52:37.506Z,2.02
2022-09-09T15:55:12.858Z,1.82
2022-09-09T15:57:46.458Z,1.55
2022-09-09T16:00:20.573Z,1.85
2022-09-09T16:02:54.276Z,2.52
2022-09-09T16:05:28.607Z,2.30
2022-09-09T16:08:01.831Z,2.25
2022-09-09T16:10:35.485Z,2.37
2022-09-09T16:13:09.902Z,2.40
2022-09-09T16:15:43.762Z,2.45
2022-09-09T16:18:17.424Z,2.72
2022-09-09T16:20:58.057Z,3.08
2022-09-09T16:23:31.786Z,2.12
2022-09-09T16:26:06.250Z,2.70
2022-09-09T16:28:40.248Z,2.52
2022-09-09T16:31:15.955Z,2.65
2022-09-09T16:33:51.690Z,2.60
2022-09-09T16:36:27.673Z,2.15
2022-09-09T16:39:02.727Z,2.45
2022-09-09T16:41:36.671Z,2.47
2022-09-09T16:44:12.089Z,3.00
2022-09-09T16:46:47.625Z,3.45
2022-09-09T16:49:21.520Z,3.17
2022-09-09T16:51:56.188Z,3.25
2022-09-09T16:54:32.923Z,2.95
2022-09-09T16:57:07.890Z,3.50
2022-09-09T16:59:42.704Z,3.80
2022-09-09T17:02:16.538Z,4.15
2022-09-09T17:04:50.450Z,3.80
2022-09-09T17:07:24.704Z,4.75
2022-09-09T17:10:00.507Z,4.72
2022-09-09T17:12:39.719Z,3.90
2022-09-09T17:15:16.529Z,5.62
2022-09-09T17:17:53.497Z,4.85
2022-09-09T17:20:27.518Z,5.00
2022-09-09T17:23:00.944Z,5.05
2022-09-09T17:25:35.167Z,4.67
2022-09-09T17:28:08.878Z,5.20
2022-09-09T17:30:42.737Z,4.97
2022-09-09T17:33:16.669Z,5.28
2022-09-09T17:35:50.866Z,4.95
2022-09-09T17:38:28.607Z,4.80
2022-09-09T17:41:07.230Z,5.08
2022-09-09T17:43:41.461Z,4.60
2022-09-09T17:46:17.234Z,4.10
2022-09-09T17:48:52.842Z,4.58
2022-09-09T17:51:30.749Z,4.03
2022-09-09T17:56:38.840Z,6.62
2022-09-09T17:59:14.380Z,4.95
2022-09-09T18:01:52.099Z,5.58
2022-09-09T18:04:26.315Z,3.80
2022-09-09T18:07:00.282Z,3.98
2022-09-09T18:09:35.225Z,4.37
2022-09-09T18:12:10.147Z,5.03
2022-09-09T18:14:46.074Z,4.47
2022-09-09T18:17:19.822Z,5.12
2022-09-09T18:19:53.580Z,5.92
2022-09-09T18:22:27.788Z,4.80
2022-09-09T18:25:01.484Z,4.67
2022-09-09T18:27:34.940Z,4.70
2022-09-09T18:30:11.376Z,5.58
2022-09-09T18:32:46.796Z,6.20
2022-09-09T18:35:21.716Z,5.35
2022-09-09T18:37:56.590Z,6.10
2022-09-09T18:40:33.496Z,7.25
2022-09-09T18:43:08.099Z,5.65
2022-09-09T18:45:42.221Z,5.80
2022-09-09T18:48:16.302Z,6.35
2022-09-09T18:50:49.914Z,6.90
2022-09-09T18:53:28.471Z,6.50
2022-09-09T18:56:04.005Z,6.70
2022-09-09T18:58:39.218Z,6.58
2022-09-09T19:01:16.714Z,5.87
2022-09-09T19:03:50.501Z,6.00
2022-09-09T19:06:27.613Z,5.60
2022-09-09T19:09:03.810Z,6.12
2022-09-09T19:11:36.993Z,6.05
2022-09-09T19:14:13.349Z,5.60
2022-09-09T19:16:48.710Z,5.28
2022-09-09T19:19:24.527Z,5.15
2022-09-09T19:21:58.241Z,6.15
2022-09-09T19:24:33.602Z,5.75
2022-09-09T19:27:08.624Z,6.35
2022-09-09T19:29:43.273Z,11.48
2022-09-09T19:34:54.362Z,5.97
2022-09-09T19:37:28.566Z,6.20
2022-09-09T19:40:02.434Z,6.85
2022-09-09T19:42:36.363Z,6.40
2022-09-09T19:45:11.548Z,6.42
2022-09-09T19:47:45.116Z,5.75
2022-09-09T19:50:19.639Z,5.72
2022-09-09T19:52:55.085Z,5.50
2022-09-09T19:55:29.119Z,7.22
2022-09-09T19:58:04.523Z,6.28
2022-09-09T20:00:39.816Z,5.95
2022-09-09T20:03:19.685Z,5.65
2022-09-09T20:05:50.270Z,5.87
2022-09-09T20:08:24.597Z,6.83
2022-09-09T20:11:00.516Z,7.28
2022-09-09T20:13:36.158Z,6.22
2022-09-09T20:16:13.171Z,6.35
2022-09-09T20:18:50.385Z,5.83
2022-09-09T20:21:26.762Z,5.67
2022-09-09T20:24:02.955Z,4.85
2022-09-09T20:26:37.741Z,5.35
2022-09-09T20:29:16.163Z,5.92
2022-09-09T20:31:49.783Z,5.53
2022-09-09T20:34:25.297Z,4.87
2022-09-09T20:37:01.582Z,5.50
2022-09-09T20:39:37.754Z,5.87
2022-09-09T20:42:12.149Z,6.35
2022-09-09T20:44:45.647Z,5.10
2022-09-09T20:47:19.421Z,5.87
2022-09-09T20:49:53.135Z,6.95
2022-09-09T20:52:26.653Z,8.35
2022-09-09T20:55:00.248Z,7.53
2022-09-09T20:57:34.587Z,7.72
2022-09-09T21:00:10.434Z,6.55
2022-09-09T21:02:44.085Z,5.62
2022-09-09T21:05:22.037Z,6.90
2022-09-09T21:07:57.027Z,5.05
2022-09-09T21:10:32.424Z,8.90
2022-09-09T21:13:05.851Z,6.85
2022-09-09T21:15:40.262Z,8.13
2022-09-09T21:18:13.766Z,6.83
2022-09-09T21:20:47.867Z,6.60
2022-09-09T21:23:21.566Z,8.23
2022-09-09T21:25:55.619Z,7.47
2022-09-09T21:28:29.272Z,7.80
2022-09-09T21:31:02.524Z,8.30
2022-09-09T21:33:36.867Z,7.08
2022-09-09T21:36:13.017Z,7.17
2022-09-09T21:38:46.684Z,8.03
2022-09-09T21:41:20.477Z,9.28
2022-09-09T21:43:55.722Z,9.50
2022-09-09T21:46:29.631Z,9.75
2022-09-09T21:49:03.607Z,8.68
2022-09-09T21:51:37.381Z,9.05
2022-09-09T21:54:11.175Z,9.58
2022-09-09T21:56:44.768Z,10.58
2022-09-09T21:59:18.151Z,9.70
2022-09-09T22:01:51.805Z,10.03
2022-09-09T22:04:25.467Z,9.45
2022-09-09T22:06:59.261Z,9.75
2022-09-09T22:09:32.916Z,8.95
2022-09-09T22:12:07.644Z,8.90
2022-09-09T22:14:41.744Z,9.30
2022-09-09T22:17:15.820Z,9.85
2022-09-09T22:19:49.355Z,6.62
2022-09-09T22:22:23.109Z,8.20
2022-09-09T22:24:56.978Z,7.17
2022-09-09T22:27:30.959Z,7.58
2022-09-09T22:30:04.971Z,7.65
2022-09-09T22:32:38.802Z,8.10
2022-09-09T22:35:13.075Z,6.85
2022-09-09T22:37:46.380Z,7.78
2022-09-09T22:40:20.166Z,7.15
2022-09-09T22:42:54.627Z,5.97
2022-09-09T22:45:28.268Z,6.70
2022-09-09T22:48:01.966Z,7.35
2022-09-09T22:50:42.147Z,7.20
2022-09-09T22:53:15.826Z,6.35
2022-09-09T22:55:59.540Z,7.22
2022-09-09T22:58:35.771Z,5.75
2022-09-09T23:01:15.597Z,6.62
2022-09-09T23:03:49.741Z,5.42
2022-09-09T23:06:25.369Z,6.53
2022-09-09T23:09:01.972Z,4.62
2022-09-09T23:11:37.949Z,5.22
2022-09-09T23:14:12.885Z,4.58
2022-09-09T23:16:47.405Z,5.08
2022-09-09T23:19:21.930Z,4.97
2022-09-09T23:21:55.464Z,4.17
2022-09-09T23:24:29.242Z,3.72
2022-09-09T23:27:02.664Z,3.92
2022-09-09T23:29:36.122Z,4.05
2022-09-09T23:32:11.341Z,4.53
2022-09-09T23:34:45.949Z,5.30
2022-09-09T23:37:20.319Z,5.25
2022-09-09T23:39:54.060Z,4.50
2022-09-09T23:42:27.441Z,5.83
2022-09-09T23:45:01.209Z,4.30
2022-09-09T23:47:35.504Z,5.45
2022-09-09T23:50:11.287Z,5.20
2022-09-09T23:52:44.821Z,5.87
2022-09-09T23:55:18.535Z,6.12
2022-09-09T23:57:53.264Z,6.33
